sensor_id;sensor_type;location;lat;lon;timestamp;pressure;altitude;pressure_sealevel;temperature;humidity
64544;BME280;50936;51.660;5.616;2023-09-07T00:02:08;101604.66;;;29.79;46.28
64544;BME280;50936;51.660;5.616;2023-09-07T00:04:57;101603.81;;;29.79;46.33
64544;BME280;50936;51.660;5.616;2023-09-07T00:07:45;101604.66;;;29.79;46.36
64544;BME280;50936;51.660;5.616;2023-09-07T00:10:33;101594.81;;;29.77;46.74
64544;BME280;50936;51.660;5.616;2023-09-07T00:13:23;101598.44;;;29.77;46.75
64544;BME280;50936;51.660;5.616;2023-09-07T00:16:10;101591.78;;;29.78;46.44
64544;BME280;50936;51.660;5.616;2023-09-07T00:18:58;101598.44;;;29.77;46.38
64544;BME280;50936;51.660;5.616;2023-09-07T00:21:45;101597.34;;;29.78;46.48
64544;BME280;50936;51.660;5.616;2023-09-07T00:24:32;101592.03;;;29.77;46.36
64544;BME280;50936;51.660;5.616;2023-09-07T00:27:19;101588.38;;;29.76;46.43
64544;BME280;50936;51.660;5.616;2023-09-07T00:30:07;101584.94;;;29.74;46.82
64544;BME280;50936;51.660;5.616;2023-09-07T00:32:56;101581.97;;;29.75;46.63
64544;BME280;50936;51.660;5.616;2023-09-07T00:35:43;101577.25;;;29.76;46.74
64544;BME280;50936;51.660;5.616;2023-09-07T00:38:30;101580.03;;;29.76;46.45
64544;BME280;50936;51.660;5.616;2023-09-07T00:41:18;101577.66;;;29.73;46.58
64544;BME280;50936;51.660;5.616;2023-09-07T00:44:05;101569.97;;;29.75;46.49
64544;BME280;50936;51.660;5.616;2023-09-07T00:46:53;101575.53;;;29.75;46.55
64544;BME280;50936;51.660;5.616;2023-09-07T00:49:40;101569.97;;;29.75;46.38
64544;BME280;50936;51.660;5.616;2023-09-07T00:52:28;101571.66;;;29.76;46.39
64544;BME280;50936;51.660;5.616;2023-09-07T00:55:16;101569.97;;;29.75;46.90
64544;BME280;50936;51.660;5.616;2023-09-07T00:58:04;101569.97;;;29.75;46.87
64544;BME280;50936;51.660;5.616;2023-09-07T01:00:52;101569.75;;;29.77;46.75
64544;BME280;50936;51.660;5.616;2023-09-07T01:03:39;101569.97;;;29.75;47.04
64544;BME280;50936;51.660;5.616;2023-09-07T01:06:32;101576.81;;;29.79;46.46
64544;BME280;50936;51.660;5.616;2023-09-07T01:09:28;101565.69;;;29.79;46.76
64544;BME280;50936;51.660;5.616;2023-09-07T01:12:18;101567.81;;;29.77;46.53
64544;BME280;50936;51.660;5.616;2023-09-07T01:15:07;101565.25;;;29.75;46.52
64544;BME280;50936;51.660;5.616;2023-09-07T01:17:55;101573.81;;;29.74;46.65
64544;BME280;50936;51.660;5.616;2023-09-07T01:21:06;101565.88;;;29.78;46.54
64544;BME280;50936;51.660;5.616;2023-09-07T01:23:55;101566.91;;;29.97;46.17
64544;BME280;50936;51.660;5.616;2023-09-07T01:26:44;101566.09;;;29.83;46.65
64544;BME280;50936;51.660;5.616;2023-09-07T01:29:36;101565.03;;;29.77;46.64
64544;BME280;50936;51.660;5.616;2023-09-07T01:32:24;101563.31;;;29.76;46.95
64544;BME280;50936;51.660;5.616;2023-09-07T01:35:14;101564.19;;;29.77;46.75
64544;BME280;50936;51.660;5.616;2023-09-07T01:38:04;101558.84;;;29.75;46.62
64544;BME280;50936;51.660;5.616;2023-09-07T01:40:51;101558.16;;;29.73;46.95
64544;BME280;50936;51.660;5.616;2023-09-07T01:43:38;101560.97;;;29.73;46.95
64544;BME280;50936;51.660;5.616;2023-09-07T01:46:26;101561.38;;;29.70;47.05
64544;BME280;50936;51.660;5.616;2023-09-07T01:49:13;101559.22;;;29.72;47.00
64544;BME280;50936;51.660;5.616;2023-09-07T01:52:01;101560.97;;;29.73;46.51
64544;BME280;50936;51.660;5.616;2023-09-07T01:54:49;101548.94;;;29.72;46.80
64544;BME280;50936;51.660;5.616;2023-09-07T01:57:37;101553.66;;;29.72;46.89
64544;BME280;50936;51.660;5.616;2023-09-07T02:00:24;101559.22;;;29.72;47.08
64544;BME280;50936;51.660;5.616;2023-09-07T02:03:11;101552.81;;;29.71;46.64
64544;BME280;50936;51.660;5.616;2023-09-07T02:05:58;101555.38;;;29.73;46.51
64544;BME280;50936;51.660;5.616;2023-09-07T02:08:46;101548.94;;;29.72;46.95
64544;BME280;50936;51.660;5.616;2023-09-07T02:11:33;101559.22;;;29.72;46.50
64544;BME280;50936;51.660;5.616;2023-09-07T02:14:21;101559.22;;;29.72;47.02
64544;BME280;50936;51.660;5.616;2023-09-07T02:17:08;101559.22;;;29.72;47.00
64544;BME280;50936;51.660;5.616;2023-09-07T02:19:56;101555.38;;;29.73;46.98
64544;BME280;50936;51.660;5.616;2023-09-07T02:22:43;101551.94;;;29.71;46.79
64544;BME280;50936;51.660;5.616;2023-09-07T02:25:31;101560.97;;;29.73;46.91
64544;BME280;50936;51.660;5.616;2023-09-07T02:28:18;101552.81;;;29.71;46.97
64544;BME280;50936;51.660;5.616;2023-09-07T02:31:05;101557.28;;;29.72;46.53
64544;BME280;50936;51.660;5.616;2023-09-07T02:33:53;101553.66;;;29.72;46.96
64544;BME280;50936;51.660;5.616;2023-09-07T02:36:40;101549.41;;;29.69;46.55
64544;BME280;50936;51.660;5.616;2023-09-07T02:39:28;101548.09;;;29.72;46.91
64544;BME280;50936;51.660;5.616;2023-09-07T02:42:15;101557.50;;;29.71;46.73
64544;BME280;50936;51.660;5.616;2023-09-07T02:45:03;101554.72;;;29.71;46.61
64544;BME280;50936;51.660;5.616;2023-09-07T02:47:51;101559.22;;;29.72;46.50
64544;BME280;50936;51.660;5.616;2023-09-07T02:50:39;101559.22;;;29.72;46.50
64544;BME280;50936;51.660;5.616;2023-09-07T02:53:27;101544.69;;;29.70;46.57
64544;BME280;50936;51.660;5.616;2023-09-07T02:56:14;101557.50;;;29.71;46.46
64544;BME280;50936;51.660;5.616;2023-09-07T02:59:01;101557.50;;;29.71;46.85
64544;BME280;50936;51.660;5.616;2023-09-07T03:01:49;101556.66;;;29.70;46.42
64544;BME280;50936;51.660;5.616;2023-09-07T03:04:37;101559.66;;;29.69;46.68
64544;BME280;50936;51.660;5.616;2023-09-07T03:07:24;101551.94;;;29.71;46.84
64544;BME280;50936;51.660;5.616;2023-09-07T03:10:12;101550.03;;;29.71;46.48
64544;BME280;50936;51.660;5.616;2023-09-07T03:13:01;101544.69;;;29.70;46.30
64544;BME280;50936;51.660;5.616;2023-09-07T03:15:53;101542.53;;;29.72;46.71
64544;BME280;50936;51.660;5.616;2023-09-07T03:18:41;101543.84;;;29.69;46.68
64544;BME280;50936;51.660;5.616;2023-09-07T03:21:28;101542.94;;;29.69;46.32
64544;BME280;50936;51.660;5.616;2023-09-07T03:24:17;101547.88;;;29.67;46.78
64544;BME280;50936;51.660;5.616;2023-09-07T03:27:04;101548.53;;;29.69;46.38
64544;BME280;50936;51.660;5.616;2023-09-07T03:29:54;101548.53;;;29.69;46.35
64544;BME280;50936;51.660;5.616;2023-09-07T03:32:42;101548.53;;;29.69;46.21
64544;BME280;50936;51.660;5.616;2023-09-07T03:35:29;101545.09;;;29.67;46.27
64544;BME280;50936;51.660;5.616;2023-09-07T03:38:16;101543.41;;;29.66;46.40
64544;BME280;50936;51.660;5.616;2023-09-07T03:41:03;101545.94;;;29.67;46.49
64544;BME280;50936;51.660;5.616;2023-09-07T03:43:50;101546.81;;;29.68;46.68
64544;BME280;50936;51.660;5.616;2023-09-07T03:46:38;101548.09;;;29.65;46.71
64544;BME280;50936;51.660;5.616;2023-09-07T03:49:25;101547.88;;;29.67;46.54
64544;BME280;50936;51.660;5.616;2023-09-07T03:52:13;101553.66;;;29.65;46.66
64544;BME280;50936;51.660;5.616;2023-09-07T03:55:00;101550.03;;;29.65;46.53
64544;BME280;50936;51.660;5.616;2023-09-07T03:57:48;101550.03;;;29.65;46.18
64544;BME280;50936;51.660;5.616;2023-09-07T04:00:39;101556.22;;;29.67;46.18
64544;BME280;50936;51.660;5.616;2023-09-07T04:03:27;101554.53;;;29.66;46.09
64544;BME280;50936;51.660;5.616;2023-09-07T04:06:16;101557.31;;;29.66;46.11
64544;BME280;50936;51.660;5.616;2023-09-07T04:09:03;101553.25;;;29.62;46.59
64544;BME280;50936;51.660;5.616;2023-09-07T04:11:52;101552.81;;;29.65;46.58
64544;BME280;50936;51.660;5.616;2023-09-07T04:14:39;101547.25;;;29.65;46.51
64544;BME280;50936;51.660;5.616;2023-09-07T04:17:27;101541.91;;;29.63;46.21
64544;BME280;50936;51.660;5.616;2023-09-07T04:20:15;101543.81;;;29.63;46.08
64544;BME280;50936;51.660;5.616;2023-09-07T04:23:02;101544.47;;;29.65;46.17
64544;BME280;50936;51.660;5.616;2023-09-07T04:25:49;101537.63;;;29.61;45.92
64544;BME280;50936;51.660;5.616;2023-09-07T04:28:38;101543.19;;;29.61;46.35
64544;BME280;50936;51.660;5.616;2023-09-07T04:31:26;101539.78;;;29.59;45.82
64544;BME280;50936;51.660;5.616;2023-09-07T04:34:14;101542.56;;;29.59;46.36
64544;BME280;50936;51.660;5.616;2023-09-07T04:37:02;101547.66;;;29.62;46.43
64544;BME280;50936;51.660;5.616;2023-09-07T04:39:51;101549.81;;;29.60;46.35
64544;BME280;50936;51.660;5.616;2023-09-07T04:42:43;101551.53;;;29.61;45.95
64544;BME280;50936;51.660;5.616;2023-09-07T04:45:30;101555.38;;;29.60;45.85
64544;BME280;50936;51.660;5.616;2023-09-07T04:48:17;101558.38;;;29.58;45.48
64544;BME280;50936;51.660;5.616;2023-09-07T04:51:06;101556.69;;;29.50;45.78
64544;BME280;50936;51.660;5.616;2023-09-07T04:53:54;101558.41;;;29.45;45.70
64544;BME280;50936;51.660;5.616;2023-09-07T04:56:41;101551.13;;;29.37;45.64
64544;BME280;50936;51.660;5.616;2023-09-07T04:59:29;101554.53;;;29.32;45.29
64544;BME280;50936;51.660;5.616;2023-09-07T05:02:16;101545.56;;;29.24;45.56
64544;BME280;50936;51.660;5.616;2023-09-07T05:05:04;101548.78;;;29.21;45.29
64544;BME280;50936;51.660;5.616;2023-09-07T05:07:52;101558.84;;;29.15;45.27
64544;BME280;50936;51.660;5.616;2023-09-07T05:10:40;101563.94;;;29.11;45.36
64544;BME280;50936;51.660;5.616;2023-09-07T05:13:27;101562.66;;;29.07;45.60
64544;BME280;50936;51.660;5.616;2023-09-07T05:16:16;101567.56;;;29.05;45.78
64544;BME280;50936;51.660;5.616;2023-09-07T05:19:04;101560.06;;;28.99;45.88
64544;BME280;50936;51.660;5.616;2023-09-07T05:21:51;101560.50;;;28.96;45.82
64544;BME280;50936;51.660;5.616;2023-09-07T05:24:39;101565.19;;;28.95;45.44
64544;BME280;50936;51.660;5.616;2023-09-07T05:27:27;101573.09;;;28.92;45.87
64544;BME280;50936;51.660;5.616;2023-09-07T05:30:14;101577.16;;;28.89;45.77
64544;BME280;50936;51.660;5.616;2023-09-07T05:33:02;101579.09;;;28.89;45.53
64544;BME280;50936;51.660;5.616;2023-09-07T05:35:49;101577.38;;;28.88;45.88
64544;BME280;50936;51.660;5.616;2023-09-07T05:38:37;101582.47;;;28.84;45.60
64544;BME280;50936;51.660;5.616;2023-09-07T05:41:25;101584.41;;;28.84;45.53
64544;BME280;50936;51.660;5.616;2023-09-07T05:44:13;101589.53;;;28.80;45.92
64544;BME280;50936;51.660;5.616;2023-09-07T05:47:00;101590.38;;;28.80;45.80
64544;BME280;50936;51.660;5.616;2023-09-07T05:49:49;101589.53;;;28.80;45.97
64544;BME280;50936;51.660;5.616;2023-09-07T05:52:36;101586.97;;;28.78;45.65
64544;BME280;50936;51.660;5.616;2023-09-07T05:55:24;101591.88;;;28.76;45.68
64544;BME280;50936;51.660;5.616;2023-09-07T05:58:12;101589.09;;;28.76;46.00
64544;BME280;50936;51.660;5.616;2023-09-07T06:01:03;101589.09;;;28.76;45.70
64544;BME280;50936;51.660;5.616;2023-09-07T06:03:52;101590.78;;;28.77;45.90
64544;BME280;50936;51.660;5.616;2023-09-07T06:06:41;101595.09;;;28.80;45.65
64544;BME280;50936;51.660;5.616;2023-09-07T06:09:28;101594.25;;;28.79;46.01
64544;BME280;50936;51.660;5.616;2023-09-07T06:12:16;101593.81;;;28.76;46.21
64544;BME280;50936;51.660;5.616;2023-09-07T06:15:03;101601.28;;;28.75;46.00
64544;BME280;50936;51.660;5.616;2023-09-07T06:17:52;101604.69;;;28.77;46.03
64544;BME280;50936;51.660;5.616;2023-09-07T06:20:39;101609.63;;;28.82;45.71
64544;BME280;50936;51.660;5.616;2023-09-07T06:23:27;101612.41;;;28.82;46.12
64544;BME280;50936;51.660;5.616;2023-09-07T06:26:14;101609.22;;;28.85;46.01
64544;BME280;50936;51.660;5.616;2023-09-07T06:29:05;101616.69;;;28.85;45.99
64544;BME280;50936;51.660;5.616;2023-09-07T06:31:53;101611.78;;;28.87;46.02
64544;BME280;50936;51.660;5.616;2023-09-07T06:34:41;101613.50;;;28.88;45.75
64544;BME280;50936;51.660;5.616;2023-09-07T06:37:29;101612.66;;;28.87;46.03
64544;BME280;50936;51.660;5.616;2023-09-07T06:40:16;101622.50;;;28.90;45.80
64544;BME280;50936;51.660;5.616;2023-09-07T06:43:08;101623.78;;;28.94;45.70
64544;BME280;50936;51.660;5.616;2023-09-07T06:46:02;101625.09;;;28.98;45.61
64544;BME280;50936;51.660;5.616;2023-09-07T06:48:54;101625.94;;;28.98;45.57
64544;BME280;50936;51.660;5.616;2023-09-07T06:51:43;101632.34;;;28.99;45.62
64544;BME280;50936;51.660;5.616;2023-09-07T06:54:30;101621.66;;;29.03;45.56
64544;BME280;50936;51.660;5.616;2023-09-07T06:57:17;101624.25;;;29.04;45.79
64544;BME280;50936;51.660;5.616;2023-09-07T07:00:05;101625.09;;;29.05;45.88
64544;BME280;50936;51.660;5.616;2023-09-07T07:02:54;101624.03;;;29.06;45.91
64544;BME280;50936;51.660;5.616;2023-09-07T07:05:45;101633.22;;;29.06;45.48
64544;BME280;50936;51.660;5.616;2023-09-07T07:08:32;101627.25;;;29.09;45.38
64544;BME280;50936;51.660;5.616;2023-09-07T07:11:19;101623.38;;;29.10;45.64
64544;BME280;50936;51.660;5.616;2023-09-07T07:14:07;101625.13;;;29.11;45.64
64544;BME280;50936;51.660;5.616;2023-09-07T07:16:55;101637.56;;;29.15;45.42
64544;BME280;50936;51.660;5.616;2023-09-07T07:19:43;101635.63;;;29.16;45.33
64544;BME280;50936;51.660;5.616;2023-09-07T07:22:30;101638.00;;;29.19;45.72
64544;BME280;50936;51.660;5.616;2023-09-07T07:25:22;101627.72;;;29.20;45.78
64544;BME280;50936;51.660;5.616;2023-09-07T07:28:09;101632.84;;;29.23;45.38
64544;BME280;50936;51.660;5.616;2023-09-07T07:30:57;101630.94;;;29.23;45.77
64544;BME280;50936;51.660;5.616;2023-09-07T07:33:46;101638.00;;;29.26;45.34
64544;BME280;50936;51.660;5.616;2023-09-07T07:36:35;101631.16;;;29.28;45.46
64544;BME280;50936;51.660;5.616;2023-09-07T07:39:23;101639.28;;;29.30;44.94
64544;BME280;50936;51.660;5.616;2023-09-07T07:42:11;101636.28;;;29.25;44.51
64544;BME280;50936;51.660;5.616;2023-09-07T07:45:00;101631.56;;;29.18;44.28
64544;BME280;50936;51.660;5.616;2023-09-07T07:47:49;101634.50;;;29.10;44.42
64544;BME280;50936;51.660;5.616;2023-09-07T07:50:38;101633.22;;;29.06;44.60
64544;BME280;50936;51.660;5.616;2023-09-07T07:53:28;101634.72;;;29.02;43.76
64544;BME280;50936;51.660;5.616;2023-09-07T07:56:16;101632.78;;;28.96;43.84
64544;BME280;50936;51.660;5.616;2023-09-07T07:59:06;101627.63;;;28.93;43.56
64544;BME280;50936;51.660;5.616;2023-09-07T08:01:53;101632.75;;;28.89;43.25
64544;BME280;50936;51.660;5.616;2023-09-07T08:04:41;101626.75;;;28.86;43.33
64544;BME280;50936;51.660;5.616;2023-09-07T08:07:29;101624.59;;;28.81;42.85
64544;BME280;50936;51.660;5.616;2023-09-07T08:10:17;101620.31;;;28.78;42.80
64544;BME280;50936;51.660;5.616;2023-09-07T08:13:04;101622.91;;;28.80;42.98
64544;BME280;50936;51.660;5.616;2023-09-07T08:15:51;101620.75;;;28.82;42.76
64544;BME280;50936;51.660;5.616;2023-09-07T08:18:39;101624.63;;;28.88;42.80
64544;BME280;50936;51.660;5.616;2023-09-07T08:21:28;101619.94;;;28.95;43.19
64544;BME280;50936;51.660;5.616;2023-09-07T08:24:16;101613.97;;;28.98;43.16
64544;BME280;50936;51.660;5.616;2023-09-07T08:27:04;101609.69;;;29.02;42.87
64544;BME280;50936;51.660;5.616;2023-09-07T08:29:51;101601.59;;;29.07;42.71
64544;BME280;50936;51.660;5.616;2023-09-07T08:32:40;101602.88;;;29.11;42.98
64544;BME280;50936;51.660;5.616;2023-09-07T08:35:27;101604.19;;;29.15;42.95
64544;BME280;50936;51.660;5.616;2023-09-07T08:38:14;101595.22;;;29.20;42.67
64544;BME280;50936;51.660;5.616;2023-09-07T08:41:03;101593.28;;;29.21;43.08
64544;BME280;50936;51.660;5.616;2023-09-07T08:43:53;101591.97;;;29.23;43.03
64544;BME280;50936;51.660;5.616;2023-09-07T08:46:43;101589.63;;;29.27;42.86
64544;BME280;50936;51.660;5.616;2023-09-07T08:49:31;101587.94;;;29.26;43.00
64544;BME280;50936;51.660;5.616;2023-09-07T08:52:19;101586.44;;;29.30;43.43
64544;BME280;50936;51.660;5.616;2023-09-07T08:55:09;101589.66;;;29.33;43.16
64544;BME280;50936;51.660;5.616;2023-09-07T08:57:58;101589.44;;;29.35;43.02
64544;BME280;50936;51.660;5.616;2023-09-07T09:00:45;101593.91;;;29.36;43.10
64544;BME280;50936;51.660;5.616;2023-09-07T09:03:33;101586.25;;;29.38;43.07
64544;BME280;50936;51.660;5.616;2023-09-07T09:06:21;101580.22;;;29.41;43.12
64544;BME280;50936;51.660;5.616;2023-09-07T09:09:24;101585.38;;;29.44;43.21
64544;BME280;50936;51.660;5.616;2023-09-07T09:12:12;101581.06;;;29.42;42.97
64544;BME280;50936;51.660;5.616;2023-09-07T09:15:01;101585.56;;;29.36;42.88
64544;BME280;50936;51.660;5.616;2023-09-07T09:17:49;101578.09;;;29.30;42.65
64544;BME280;50936;51.660;5.616;2023-09-07T09:20:37;101586.66;;;29.22;42.28
64544;BME280;50936;51.660;5.616;2023-09-07T09:23:33;101584.09;;;29.20;42.00
64544;BME280;50936;51.660;5.616;2023-09-07T09:26:23;101590.00;;;29.10;41.84
64544;BME280;50936;51.660;5.616;2023-09-07T09:29:14;101578.44;;;29.07;41.60
64544;BME280;50936;51.660;5.616;2023-09-07T09:32:07;101583.56;;;29.03;41.34
64544;BME280;50936;51.660;5.616;2023-09-07T09:34:54;101566.06;;;28.96;41.41
64544;BME280;50936;51.660;5.616;2023-09-07T09:37:46;101572.88;;;28.93;40.97
64544;BME280;50936;51.660;5.616;2023-09-07T09:40:35;101571.81;;;28.88;41.46
64544;BME280;50936;51.660;5.616;2023-09-07T09:43:24;101557.66;;;28.83;41.14
64544;BME280;50936;51.660;5.616;2023-09-07T09:46:12;101560.44;;;28.83;41.08
64544;BME280;50936;51.660;5.616;2023-09-07T09:49:01;101559.59;;;28.82;41.30
64544;BME280;50936;51.660;5.616;2023-09-07T09:51:50;101560.91;;;28.79;41.22
64544;BME280;50936;51.660;5.616;2023-09-07T09:54:38;101558.31;;;28.78;41.57
64544;BME280;50936;51.660;5.616;2023-09-07T09:57:26;101556.59;;;28.77;41.66
64544;BME280;50936;51.660;5.616;2023-09-07T10:00:17;101550.81;;;28.78;41.50
64544;BME280;50936;51.660;5.616;2023-09-07T10:03:08;101554.88;;;28.83;41.59
64544;BME280;50936;51.660;5.616;2023-09-07T10:06:08;101551.69;;;28.86;42.04
64544;BME280;50936;51.660;5.616;2023-09-07T10:09:06;101540.34;;;28.80;41.77
64544;BME280;50936;51.660;5.616;2023-09-07T10:11:58;101547.19;;;28.85;41.63
64544;BME280;50936;51.660;5.616;2023-09-07T10:14:52;101542.06;;;28.82;41.60
64544;BME280;50936;51.660;5.616;2023-09-07T10:17:42;101531.38;;;28.78;41.57
64544;BME280;50936;51.660;5.616;2023-09-07T10:20:45;101538.41;;;28.81;41.45
64544;BME280;50936;51.660;5.616;2023-09-07T10:23:45;101541.22;;;29.01;41.26
64544;BME280;50936;51.660;5.616;2023-09-07T10:26:35;101541.88;;;28.90;41.60
64544;BME280;50936;51.660;5.616;2023-09-07T10:29:23;101545.50;;;28.84;41.16
64544;BME280;50936;51.660;5.616;2023-09-07T10:32:10;101538.66;;;28.79;41.09
64544;BME280;50936;51.660;5.616;2023-09-07T10:35:12;101542.91;;;28.82;40.88
64544;BME280;50936;51.660;5.616;2023-09-07T10:38:03;101546.31;;;28.77;41.26
64544;BME280;50936;51.660;5.616;2023-09-07T10:40:56;101532.41;;;28.77;40.62
64544;BME280;50936;51.660;5.616;2023-09-07T10:43:53;101531.56;;;28.77;40.64
64544;BME280;50936;51.660;5.616;2023-09-07T10:46:41;101536.53;;;28.95;40.91
64544;BME280;50936;51.660;5.616;2023-09-07T10:49:28;101540.34;;;28.80;40.84
64544;BME280;50936;51.660;5.616;2023-09-07T10:52:16;101537.34;;;28.75;40.44
64544;BME280;50936;51.660;5.616;2023-09-07T10:55:03;101540.31;;;28.74;40.66
64544;BME280;50936;51.660;5.616;2023-09-07T10:57:51;101530.50;;;28.71;40.28
64544;BME280;50936;51.660;5.616;2023-09-07T11:00:38;101525.34;;;28.68;40.15
64544;BME280;50936;51.660;5.616;2023-09-07T11:03:27;101534.38;;;28.70;39.98
64544;BME280;50936;51.660;5.616;2023-09-07T11:06:20;101523.25;;;28.70;40.13
64544;BME280;50936;51.660;5.616;2023-09-07T11:09:12;101523.25;;;28.70;40.00
64544;BME280;50936;51.660;5.616;2023-09-07T11:12:05;101515.13;;;28.69;39.71
64544;BME280;50936;51.660;5.616;2023-09-07T11:14:53;101518.09;;;28.67;39.64
64544;BME280;50936;51.660;5.616;2023-09-07T11:17:41;101505.25;;;28.66;39.73
64544;BME280;50936;51.660;5.616;2023-09-07T11:20:28;101512.09;;;28.64;39.65
64544;BME280;50936;51.660;5.616;2023-09-07T11:23:19;101506.75;;;28.62;39.92
64544;BME280;50936;51.660;5.616;2023-09-07T11:26:08;101500.13;;;28.63;39.54
64544;BME280;50936;51.660;5.616;2023-09-07T11:28:56;101509.53;;;28.62;39.53
64544;BME280;50936;51.660;5.616;2023-09-07T11:31:45;101498.41;;;28.62;39.37
64544;BME280;50936;51.660;5.616;2023-09-07T11:34:32;101499.25;;;28.63;39.71
64544;BME280;50936;51.660;5.616;2023-09-07T11:37:23;101501.84;;;28.64;39.38
64544;BME280;50936;51.660;5.616;2023-09-07T11:40:12;101500.56;;;28.60;39.58
64544;BME280;50936;51.660;5.616;2023-09-07T11:43:00;101496.47;;;28.63;39.38
64544;BME280;50936;51.660;5.616;2023-09-07T11:45:49;101497.56;;;28.62;39.30
64544;BME280;50936;51.660;5.616;2023-09-07T11:48:37;101489.88;;;28.64;39.55
64544;BME280;50936;51.660;5.616;2023-09-07T11:51:24;101492.66;;;28.64;39.36
64544;BME280;50936;51.660;5.616;2023-09-07T11:54:11;101495.63;;;28.62;39.23
64544;BME280;50936;51.660;5.616;2023-09-07T11:56:58;101483.47;;;28.63;39.36
64544;BME280;50936;51.660;5.616;2023-09-07T11:59:45;101480.91;;;28.62;39.30
64544;BME280;50936;51.660;5.616;2023-09-07T12:02:45;101483.47;;;28.63;39.09
64544;BME280;50936;51.660;5.616;2023-09-07T12:05:32;101483.47;;;28.63;38.78
64544;BME280;50936;51.660;5.616;2023-09-07T12:08:19;101481.53;;;28.64;39.00
64544;BME280;50936;51.660;5.616;2023-09-07T12:11:07;101484.31;;;28.64;38.63
64544;BME280;50936;51.660;5.616;2023-09-07T12:13:54;101477.91;;;28.63;38.91
64544;BME280;50936;51.660;5.616;2023-09-07T12:16:41;101483.22;;;28.65;38.71
64544;BME280;50936;51.660;5.616;2023-09-07T12:19:29;101478.75;;;28.64;38.58
64544;BME280;50936;51.660;5.616;2023-09-07T12:22:16;101477.91;;;28.63;38.48
64544;BME280;50936;51.660;5.616;2023-09-07T12:25:04;101474.44;;;28.61;38.45
64544;BME280;50936;51.660;5.616;2023-09-07T12:28:02;101471.69;;;28.61;38.39
64544;BME280;50936;51.660;5.616;2023-09-07T12:30:50;101471.69;;;28.61;38.47
64544;BME280;50936;51.660;5.616;2023-09-07T12:33:37;101474.44;;;28.61;38.41
64544;BME280;50936;51.660;5.616;2023-09-07T12:36:25;101469.13;;;28.59;38.30
64544;BME280;50936;51.660;5.616;2023-09-07T12:39:16;101464.00;;;28.63;38.00
64544;BME280;50936;51.660;5.616;2023-09-07T12:42:04;101472.34;;;28.63;38.21
64544;BME280;50936;51.660;5.616;2023-09-07T12:44:51;101467.63;;;28.64;38.25
64544;BME280;50936;51.660;5.616;2023-09-07T12:47:39;101469.56;;;28.63;37.97
64544;BME280;50936;51.660;5.616;2023-09-07T12:50:27;101462.94;;;28.64;37.73
64544;BME280;50936;51.660;5.616;2023-09-07T12:53:14;101455.69;;;28.63;37.90
64544;BME280;50936;51.660;5.616;2023-09-07T12:56:03;101461.22;;;28.63;37.62
64544;BME280;50936;51.660;5.616;2023-09-07T12:58:50;101450.97;;;28.64;37.51
64544;BME280;50936;51.660;5.616;2023-09-07T13:01:39;101447.97;;;28.65;37.64
64544;BME280;50936;51.660;5.616;2023-09-07T13:04:26;101447.34;;;28.63;37.29
64544;BME280;50936;51.660;5.616;2023-09-07T13:07:14;101448.38;;;28.62;37.44
64544;BME280;50936;51.660;5.616;2023-09-07T13:10:02;101444.75;;;28.62;37.26
64544;BME280;50936;51.660;5.616;2023-09-07T13:12:51;101438.31;;;28.61;37.17
64544;BME280;50936;51.660;5.616;2023-09-07T13:15:38;101439.00;;;28.63;37.45
64544;BME280;50936;51.660;5.616;2023-09-07T13:18:25;101437.91;;;28.64;37.49
64544;BME280;50936;51.660;5.616;2023-09-07T13:21:12;101430.88;;;28.62;37.33
64544;BME280;50936;51.660;5.616;2023-09-07T13:24:00;101433.44;;;28.63;37.55
64544;BME280;50936;51.660;5.616;2023-09-07T13:26:47;101416.78;;;28.63;37.47
64544;BME280;50936;51.660;5.616;2023-09-07T13:29:35;101415.91;;;28.69;37.45
64544;BME280;50936;51.660;5.616;2023-09-07T13:32:23;101415.50;;;28.72;37.43
64544;BME280;50936;51.660;5.616;2023-09-07T13:35:11;101412.91;;;28.77;37.60
64544;BME280;50936;51.660;5.616;2023-09-07T13:37:58;101409.50;;;28.82;37.33
64544;BME280;50936;51.660;5.616;2023-09-07T13:40:46;101417.59;;;28.90;37.45
64544;BME280;50936;51.660;5.616;2023-09-07T13:43:33;101409.69;;;28.94;37.49
64544;BME280;50936;51.660;5.616;2023-09-07T13:46:20;101416.78;;;28.96;37.46
64544;BME280;50936;51.660;5.616;2023-09-07T13:49:08;101411.84;;;28.98;37.63
64544;BME280;50936;51.660;5.616;2023-09-07T13:51:55;101414.63;;;29.05;37.70
64544;BME280;50936;51.660;5.616;2023-09-07T13:54:42;101414.19;;;29.08;37.85
64544;BME280;50936;51.660;5.616;2023-09-07T13:57:29;101412.03;;;29.10;37.78
64544;BME280;50936;51.660;5.616;2023-09-07T14:00:17;101410.75;;;29.13;37.91
64544;BME280;50936;51.660;5.616;2023-09-07T14:03:04;101412.91;;;29.17;37.96
64544;BME280;50936;51.660;5.616;2023-09-07T14:05:51;101416.31;;;29.20;38.09
64544;BME280;50936;51.660;5.616;2023-09-07T14:08:38;101406.91;;;29.21;37.75
64544;BME280;50936;51.660;5.616;2023-09-07T14:11:25;101410.34;;;29.23;38.08
64544;BME280;50936;51.660;5.616;2023-09-07T14:14:13;101416.31;;;29.26;38.00
64544;BME280;50936;51.660;5.616;2023-09-07T14:17:01;101401.78;;;29.31;38.07
64544;BME280;50936;51.660;5.616;2023-09-07T14:19:49;101405.63;;;29.30;38.29
64544;BME280;50936;51.660;5.616;2023-09-07T14:22:36;101394.50;;;29.30;37.79
64544;BME280;50936;51.660;5.616;2023-09-07T14:25:23;101399.00;;;29.31;38.41
64544;BME280;50936;51.660;5.616;2023-09-07T14:28:11;101399.19;;;29.36;38.20
64544;BME280;50936;51.660;5.616;2023-09-07T14:30:58;101399.19;;;29.36;38.18
64544;BME280;50936;51.660;5.616;2023-09-07T14:33:49;101398.75;;;29.39;38.25
64544;BME280;50936;51.660;5.616;2023-09-07T14:36:37;101397.44;;;29.42;38.17
64544;BME280;50936;51.660;5.616;2023-09-07T14:39:24;101384.63;;;29.41;38.49
64544;BME280;50936;51.660;5.616;2023-09-07T14:42:11;101391.44;;;29.45;38.50